sensor_id;sensor_type;location;lat;lon;timestamp;pressure;altitude;pressure_sealevel;temperature;humidity
6395;BME280;3230;42.588;23.358;2022-10-16T00:01:31;91618.88;;;6.20;100.00
6395;BME280;3230;42.588;23.358;2022-10-16T00:03:58;91628.50;;;6.07;100.00
6395;BME280;3230;42.588;23.358;2022-10-16T00:06:25;91627.03;;;6.12;100.00
6395;BME280;3230;42.588;23.358;2022-10-16T00:08:50;91632.13;;;6.06;100.00
6395;BME280;3230;42.588;23.358;2022-10-16T00:11:23;91629.56;;;5.95;100.00
6395;BME280;3230;42.588;23.358;2022-10-16T00:13:52;91634.97;;;5.93;100.00
6395;BME280;3230;42.588;23.358;2022-10-16T00:16:19;91628.91;;;5.99;100.00
6395;BME280;3230;42.588;23.358;2022-10-16T00:18:45;91627.63;;;5.90;100.00
6395;BME280;3230;42.588;23.358;2022-10-16T00:21:13;91633.16;;;5.93;100.00
6395;BME280;3230;42.588;23.358;2022-10-16T00:23:39;91628.91;;;5.99;100.00
6395;BME280;3230;42.588;23.358;2022-10-16T00:26:15;91628.81;;;5.70;100.00
6395;BME280;3230;42.588;23.358;2022-10-16T00:28:41;91629.56;;;5.83;100.00
6395;BME280;3230;42.588;23.358;2022-10-16T00:31:09;91638.28;;;5.76;100.00
6395;BME280;3230;42.588;23.358;2022-10-16T00:33:36;91643.25;;;5.66;100.00
6395;BME280;3230;42.588;23.358;2022-10-16T00:36:03;91645.06;;;5.78;100.00
6395;BME280;3230;42.588;23.358;2022-10-16T00:38:28;91649.94;;;5.74;100.00
6395;BME280;3230;42.588;23.358;2022-10-16T00:40:54;91647.34;;;5.62;100.00
6395;BME280;3230;42.588;23.358;2022-10-16T00:46:09;91645.56;;;5.51;100.00
6395;BME280;3230;42.588;23.358;2022-10-16T00:48:36;91646.47;;;5.44;100.00
6395;BME280;3230;42.588;23.358;2022-10-16T00:51:01;91643.63;;;5.58;100.00
6395;BME280;3230;42.588;23.358;2022-10-16T00:53:27;91645.31;;;5.52;100.00
6395;BME280;3230;42.588;23.358;2022-10-16T00:55:53;91642.81;;;5.45;100.00
6395;BME280;3230;42.588;23.358;2022-10-16T00:58:19;91644.97;;;5.49;100.00
6395;BME280;3230;42.588;23.358;2022-10-16T01:00:45;91646.56;;;5.50;100.00
6395;BME280;3230;42.588;23.358;2022-10-16T01:03:32;91651.31;;;5.53;100.00
6395;BME280;3230;42.588;23.358;2022-10-16T01:06:23;91659.91;;;5.53;100.00
6395;BME280;3230;42.588;23.358;2022-10-16T01:11:29;91658.78;;;5.37;100.00
6395;BME280;3230;42.588;23.358;2022-10-16T01:14:00;91662.38;;;5.36;100.00
6395;BME280;3230;42.588;23.358;2022-10-16T01:16:36;91660.38;;;5.38;100.00
6395;BME280;3230;42.588;23.358;2022-10-16T01:22:01;91659.56;;;5.38;100.00
6395;BME280;3230;42.588;23.358;2022-10-16T01:32:10;91650.06;;;5.20;100.00
6395;BME280;3230;42.588;23.358;2022-10-16T01:34:49;91647.47;;;5.20;100.00
6395;BME280;3230;42.588;23.358;2022-10-16T01:37:23;91643.50;;;5.05;100.00
6395;BME280;3230;42.588;23.358;2022-10-16T01:39:54;91638.19;;;5.00;100.00
6395;BME280;3230;42.588;23.358;2022-10-16T01:42:24;91652.31;;;5.04;100.00
6395;BME280;3230;42.588;23.358;2022-10-16T01:44:54;91649.16;;;5.02;100.00
6395;BME280;3230;42.588;23.358;2022-10-16T01:47:23;91651.97;;;5.01;100.00
6395;BME280;3230;42.588;23.358;2022-10-16T01:49:51;91651.38;;;4.87;100.00
6395;BME280;3230;42.588;23.358;2022-10-16T01:52:20;91656.00;;;4.85;100.00
6395;BME280;3230;42.588;23.358;2022-10-16T01:54:50;91655.34;;;5.01;100.00
6395;BME280;3230;42.588;23.358;2022-10-16T01:57:17;91664.03;;;4.95;100.00
6395;BME280;3230;42.588;23.358;2022-10-16T01:59:48;91662.22;;;4.95;100.00
6395;BME280;3230;42.588;23.358;2022-10-16T02:02:17;91653.66;;;4.95;100.00
6395;BME280;3230;42.588;23.358;2022-10-16T02:04:47;91663.13;;;4.89;100.00
6395;BME280;3230;42.588;23.358;2022-10-16T02:07:14;91666.53;;;4.90;100.00
6395;BME280;3230;42.588;23.358;2022-10-16T02:09:40;91672.25;;;4.92;100.00
6395;BME280;3230;42.588;23.358;2022-10-16T02:12:33;91666.28;;;4.91;100.00
6395;BME280;3230;42.588;23.358;2022-10-16T02:15:00;91667.41;;;4.84;100.00
6395;BME280;3230;42.588;23.358;2022-10-16T02:17:26;91678.59;;;4.84;100.00
6395;BME280;3230;42.588;23.358;2022-10-16T02:19:54;91677.91;;;4.89;100.00
6395;BME280;3230;42.588;23.358;2022-10-16T02:22:39;91682.53;;;4.87;100.00
6395;BME280;3230;42.588;23.358;2022-10-16T02:27:57;91676.53;;;4.74;100.00
6395;BME280;3230;42.588;23.358;2022-10-16T02:30:30;91669.78;;;4.85;100.00
6395;BME280;3230;42.588;23.358;2022-10-16T02:33:00;91684.47;;;4.91;100.00
6395;BME280;3230;42.588;23.358;2022-10-16T02:35:27;91692.34;;;4.85;100.00
6395;BME280;3230;42.588;23.358;2022-10-16T02:37:53;91684.34;;;4.86;100.00
6395;BME280;3230;42.588;23.358;2022-10-16T02:40:19;91686.59;;;4.83;100.00
6395;BME280;3230;42.588;23.358;2022-10-16T02:42:50;91677.09;;;4.76;100.00
6395;BME280;3230;42.588;23.358;2022-10-16T02:45:16;91679.69;;;4.76;100.00
6395;BME280;3230;42.588;23.358;2022-10-16T02:47:41;91682.72;;;4.73;100.00
6395;BME280;3230;42.588;23.358;2022-10-16T02:50:07;91684.09;;;4.76;100.00
6395;BME280;3230;42.588;23.358;2022-10-16T02:52:32;91685.44;;;4.78;100.00
6395;BME280;3230;42.588;23.358;2022-10-16T02:54:58;91691.88;;;4.76;100.00
6395;BME280;3230;42.588;23.358;2022-10-16T02:57:23;91678.91;;;4.76;100.00
6395;BME280;3230;42.588;23.358;2022-10-16T02:59:49;91680.94;;;4.74;100.00
6395;BME280;3230;42.588;23.358;2022-10-16T03:02:14;91683.97;;;4.71;100.00
6395;BME280;3230;42.588;23.358;2022-10-16T03:04:40;91690.63;;;4.78;100.00
6395;BME280;3230;42.588;23.358;2022-10-16T03:07:05;91689.19;;;4.83;100.00
6395;BME280;3230;42.588;23.358;2022-10-16T03:09:31;91687.06;;;4.91;100.00
6395;BME280;3230;42.588;23.358;2022-10-16T03:11:56;91688.44;;;4.94;100.00
6395;BME280;3230;42.588;23.358;2022-10-16T03:14:22;91689.53;;;4.86;100.00
6395;BME280;3230;42.588;23.358;2022-10-16T03:16:47;91687.72;;;4.87;100.00
6395;BME280;3230;42.588;23.358;2022-10-16T03:19:12;91688.31;;;4.89;100.00
6395;BME280;3230;42.588;23.358;2022-10-16T03:21:38;91691.47;;;4.91;100.00
6395;BME280;3230;42.588;23.358;2022-10-16T03:24:03;91687.59;;;4.82;100.00
6395;BME280;3230;42.588;23.358;2022-10-16T03:26:29;91693.38;;;4.84;100.00
6395;BME280;3230;42.588;23.358;2022-10-16T03:28:54;91688.03;;;4.78;100.00
6395;BME280;3230;42.588;23.358;2022-10-16T03:31:20;91693.28;;;4.90;100.00
6395;BME280;3230;42.588;23.358;2022-10-16T03:33:45;91696.34;;;4.99;100.00
6395;BME280;3230;42.588;23.358;2022-10-16T03:36:11;91696.00;;;4.95;100.00
6395;BME280;3230;42.588;23.358;2022-10-16T03:38:36;91697.22;;;4.93;100.00
6395;BME280;3230;42.588;23.358;2022-10-16T03:41:01;91692.25;;;4.91;100.00
6395;BME280;3230;42.588;23.358;2022-10-16T03:43:27;91693.63;;;4.94;100.00
6395;BME280;3230;42.588;23.358;2022-10-16T03:45:52;91695.22;;;4.95;100.00
6395;BME280;3230;42.588;23.358;2022-10-16T03:48:18;91701.53;;;4.99;100.00
6395;BME280;3230;42.588;23.358;2022-10-16T03:50:44;91694.31;;;5.01;100.00
6395;BME280;3230;42.588;23.358;2022-10-16T03:53:09;91696.22;;;4.94;100.00
6395;BME280;3230;42.588;23.358;2022-10-16T03:55:35;91690.91;;;4.89;100.00
6395;BME280;3230;42.588;23.358;2022-10-16T03:58:00;91689.53;;;4.86;100.00
6395;BME280;3230;42.588;23.358;2022-10-16T04:00:26;91686.84;;;4.93;100.00
6395;BME280;3230;42.588;23.358;2022-10-16T04:02:52;91693.63;;;4.94;100.00
6395;BME280;3230;42.588;23.358;2022-10-16T04:05:17;91684.47;;;4.91;100.00
6395;BME280;3230;42.588;23.358;2022-10-16T04:07:42;91692.56;;;4.83;100.00
6395;BME280;3230;42.588;23.358;2022-10-16T04:10:08;91692.69;;;4.76;100.00
6395;BME280;3230;42.588;23.358;2022-10-16T04:12:33;91687.03;;;4.79;100.00
6395;BME280;3230;42.588;23.358;2022-10-16T04:14:59;91692.22;;;4.79;100.00
6395;BME280;3230;42.588;23.358;2022-10-16T04:17:24;91693.72;;;4.87;100.00
6395;BME280;3230;42.588;23.358;2022-10-16T04:19:49;91697.09;;;4.88;100.00
6395;BME280;3230;42.588;23.358;2022-10-16T04:22:15;91697.22;;;4.93;100.00
6395;BME280;3230;42.588;23.358;2022-10-16T04:24:40;91696.75;;;4.84;100.00
6395;BME280;3230;42.588;23.358;2022-10-16T04:27:06;91694.28;;;4.77;100.00
6395;BME280;3230;42.588;23.358;2022-10-16T04:29:31;91698.00;;;4.82;100.00
6395;BME280;3230;42.588;23.358;2022-10-16T04:31:56;91703.78;;;4.84;100.00
6395;BME280;3230;42.588;23.358;2022-10-16T04:34:22;91698.47;;;4.90;100.00
6395;BME280;3230;42.588;23.358;2022-10-16T04:36:48;91700.06;;;4.91;100.00
6395;BME280;3230;42.588;23.358;2022-10-16T04:39:16;91708.19;;;4.95;100.00
6395;BME280;3230;42.588;23.358;2022-10-16T04:41:41;91711.03;;;5.05;100.00
6395;BME280;3230;42.588;23.358;2022-10-16T04:44:07;91713.50;;;5.00;100.00
6395;BME280;3230;42.588;23.358;2022-10-16T04:46:33;91709.47;;;5.04;100.00
6395;BME280;3230;42.588;23.358;2022-10-16T04:48:58;91713.78;;;5.10;100.00
6395;BME280;3230;42.588;23.358;2022-10-16T04:51:23;91721.03;;;5.20;100.00
6395;BME280;3230;42.588;23.358;2022-10-16T04:53:50;91716.84;;;5.31;100.00
6395;BME280;3230;42.588;23.358;2022-10-16T04:56:16;91716.06;;;5.42;100.00
6395;BME280;3230;42.588;23.358;2022-10-16T04:58:41;91722.38;;;5.47;100.00
6395;BME280;3230;42.588;23.358;2022-10-16T05:01:07;91727.25;;;5.55;100.00
6395;BME280;3230;42.588;23.358;2022-10-16T05:03:32;91730.66;;;5.67;100.00
6395;BME280;3230;42.588;23.358;2022-10-16T05:05:57;91718.81;;;5.71;100.00
6395;BME280;3230;42.588;23.358;2022-10-16T05:08:23;91732.81;;;5.82;100.00
6395;BME280;3230;42.588;23.358;2022-10-16T05:10:49;91733.81;;;5.93;100.00
6395;BME280;3230;42.588;23.358;2022-10-16T05:13:14;91735.56;;;5.99;100.00
6395;BME280;3230;42.588;23.358;2022-10-16T05:15:39;91743.13;;;6.13;100.00
6395;BME280;3230;42.588;23.358;2022-10-16T05:18:05;91743.31;;;6.23;100.00
6395;BME280;3230;42.588;23.358;2022-10-16T05:20:30;91745.00;;;6.29;100.00
6395;BME280;3230;42.588;23.358;2022-10-16T05:22:56;91744.75;;;6.43;100.00
6395;BME280;3230;42.588;23.358;2022-10-16T05:25:21;91746.06;;;6.57;100.00
6395;BME280;3230;42.588;23.358;2022-10-16T05:27:47;91751.78;;;6.71;100.00
6395;BME280;3230;42.588;23.358;2022-10-16T05:30:14;91749.22;;;7.17;100.00
6395;BME280;3230;42.588;23.358;2022-10-16T05:32:39;91743.41;;;7.61;100.00
6395;BME280;3230;42.588;23.358;2022-10-16T05:35:05;91754.66;;;7.95;100.00
6395;BME280;3230;42.588;23.358;2022-10-16T05:37:31;91761.34;;;8.30;100.00
6395;BME280;3230;42.588;23.358;2022-10-16T05:39:56;91760.56;;;8.91;100.00
6395;BME280;3230;42.588;23.358;2022-10-16T05:42:21;91763.63;;;10.03;100.00
6395;BME280;3230;42.588;23.358;2022-10-16T05:44:47;91775.03;;;11.61;100.00
6395;BME280;3230;42.588;23.358;2022-10-16T05:47:13;91784.88;;;12.88;94.42
6395;BME280;3230;42.588;23.358;2022-10-16T05:49:39;91796.91;;;13.70;86.97
6395;BME280;3230;42.588;23.358;2022-10-16T05:52:04;91812.66;;;15.03;82.20
6395;BME280;3230;42.588;23.358;2022-10-16T05:54:30;91817.03;;;15.76;76.28
6395;BME280;3230;42.588;23.358;2022-10-16T05:56:55;91825.38;;;16.73;71.98
6395;BME280;3230;42.588;23.358;2022-10-16T05:59:21;91821.81;;;17.75;67.04
6395;BME280;3230;42.588;23.358;2022-10-16T06:01:46;91825.63;;;19.60;58.34
6395;BME280;3230;42.588;23.358;2022-10-16T06:04:11;91801.28;;;20.63;56.22
6395;BME280;3230;42.588;23.358;2022-10-16T06:06:37;91816.34;;;22.26;46.22
6395;BME280;3230;42.588;23.358;2022-10-16T06:09:03;91815.19;;;22.15;46.20
6395;BME280;3230;42.588;23.358;2022-10-16T06:11:31;91817.50;;;23.26;41.34
6395;BME280;3230;42.588;23.358;2022-10-16T06:13:59;91819.97;;;23.93;38.44
6395;BME280;3230;42.588;23.358;2022-10-16T06:16:32;91828.34;;;23.67;37.73
6395;BME280;3230;42.588;23.358;2022-10-16T06:18:58;91838.47;;;23.86;37.93
6395;BME280;3230;42.588;23.358;2022-10-16T06:21:27;91834.81;;;23.07;40.76
6395;BME280;3230;42.588;23.358;2022-10-16T06:23:54;91827.53;;;22.83;40.30
6395;BME280;3230;42.588;23.358;2022-10-16T06:26:22;91829.06;;;21.57;43.25
6395;BME280;3230;42.588;23.358;2022-10-16T06:28:48;91827.16;;;22.39;41.31
6395;BME280;3230;42.588;23.358;2022-10-16T06:31:14;91834.13;;;22.98;39.59
6395;BME280;3230;42.588;23.358;2022-10-16T06:33:40;91828.53;;;23.24;38.82
6395;BME280;3230;42.588;23.358;2022-10-16T06:36:10;91833.03;;;22.44;41.04
6395;BME280;3230;42.588;23.358;2022-10-16T06:38:37;91822.63;;;21.11;43.80
6395;BME280;3230;42.588;23.358;2022-10-16T06:41:04;91833.38;;;20.58;44.47
6395;BME280;3230;42.588;23.358;2022-10-16T06:43:30;91833.81;;;18.69;51.02
6395;BME280;3230;42.588;23.358;2022-10-16T06:46:00;91834.31;;;18.26;52.64
6395;BME280;3230;42.588;23.358;2022-10-16T06:48:27;91833.28;;;17.20;56.10
6395;BME280;3230;42.588;23.358;2022-10-16T06:51:02;91839.56;;;16.77;58.62
6395;BME280;3230;42.588;23.358;2022-10-16T06:53:30;91841.84;;;15.80;60.74
6395;BME280;3230;42.588;23.358;2022-10-16T06:55:56;91843.09;;;15.20;64.69
6395;BME280;3230;42.588;23.358;2022-10-16T06:58:22;91844.41;;;14.69;65.71
6395;BME280;3230;42.588;23.358;2022-10-16T07:00:48;91854.06;;;13.65;73.03
6395;BME280;3230;42.588;23.358;2022-10-16T07:03:14;91849.72;;;13.34;73.25
6395;BME280;3230;42.588;23.358;2022-10-16T07:05:43;91847.59;;;13.91;72.93
6395;BME280;3230;42.588;23.358;2022-10-16T07:08:08;91852.84;;;15.19;70.30
6395;BME280;3230;42.588;23.358;2022-10-16T07:10:35;91855.50;;;16.58;64.71
6395;BME280;3230;42.588;23.358;2022-10-16T07:13:01;91853.41;;;18.14;58.42
6395;BME280;3230;42.588;23.358;2022-10-16T07:15:27;91866.88;;;19.97;50.80
6395;BME280;3230;42.588;23.358;2022-10-16T07:17:52;91863.59;;;21.45;45.44
6395;BME280;3230;42.588;23.358;2022-10-16T07:20:18;91874.94;;;22.52;40.13
6395;BME280;3230;42.588;23.358;2022-10-16T07:22:44;91877.34;;;23.34;40.86
6395;BME280;3230;42.588;23.358;2022-10-16T07:25:09;91888.22;;;24.11;35.76
6395;BME280;3230;42.588;23.358;2022-10-16T07:27:36;91876.44;;;23.42;37.45
6395;BME280;3230;42.588;23.358;2022-10-16T07:30:02;91872.88;;;23.38;37.21
6395;BME280;3230;42.588;23.358;2022-10-16T07:32:28;91877.25;;;25.27;34.15
6395;BME280;3230;42.588;23.358;2022-10-16T07:34:53;91889.25;;;26.25;31.26
6395;BME280;3230;42.588;23.358;2022-10-16T07:37:21;91885.16;;;26.31;29.83
6395;BME280;3230;42.588;23.358;2022-10-16T07:39:46;91893.53;;;26.81;28.87
6395;BME280;3230;42.588;23.358;2022-10-16T07:42:12;91894.22;;;27.18;29.04
6395;BME280;3230;42.588;23.358;2022-10-16T07:44:37;91893.88;;;26.80;27.76
6395;BME280;3230;42.588;23.358;2022-10-16T07:47:03;91892.31;;;26.98;29.17
6395;BME280;3230;42.588;23.358;2022-10-16T07:49:28;91890.91;;;27.67;26.59
6395;BME280;3230;42.588;23.358;2022-10-16T07:51:54;91897.63;;;28.27;25.57
6395;BME280;3230;42.588;23.358;2022-10-16T07:54:19;91895.88;;;27.03;100.00
6395;BME280;3230;42.588;23.358;2022-10-16T07:56:45;61022.06;;;-147.60;100.00
6395;BME280;3230;42.588;23.358;2022-10-16T07:59:10;61022.06;;;-147.60;100.00
6395;BME280;3230;42.588;23.358;2022-10-16T08:01:36;61022.06;;;-147.60;100.00
6395;BME280;3230;42.588;23.358;2022-10-16T08:04:01;61022.06;;;-147.60;100.00
6395;BME280;3230;42.588;23.358;2022-10-16T08:06:27;61022.06;;;-147.60;100.00
6395;BME280;3230;42.588;23.358;2022-10-16T08:08:52;61022.06;;;-147.60;100.00
6395;BME280;3230;42.588;23.358;2022-10-16T08:11:18;61022.06;;;-147.60;100.00
6395;BME280;3230;42.588;23.358;2022-10-16T08:13:43;61022.06;;;-147.60;100.00
6395;BME280;3230;42.588;23.358;2022-10-16T08:16:09;61022.06;;;-147.60;100.00
6395;BME280;3230;42.588;23.358;2022-10-16T08:18:39;61022.06;;;-147.60;100.00
6395;BME280;3230;42.588;23.358;2022-10-16T08:21:06;61022.06;;;-147.60;100.00
6395;BME280;3230;42.588;23.358;2022-10-16T08:23:32;61022.06;;;-147.60;100.00
6395;BME280;3230;42.588;23.358;2022-10-16T08:26:06;61022.06;;;-147.60;100.00
6395;BME280;3230;42.588;23.358;2022-10-16T08:28:32;61022.06;;;-147.60;100.00
6395;BME280;3230;42.588;23.358;2022-10-16T08:31:09;61022.06;;;-147.60;100.00
6395;BME280;3230;42.588;23.358;2022-10-16T08:33:36;61022.06;;;-147.60;100.00
6395;BME280;3230;42.588;23.358;2022-10-16T08:36:03;61022.06;;;-147.60;100.00
6395;BME280;3230;42.588;23.358;2022-10-16T08:38:28;61022.06;;;-147.60;100.00
6395;BME280;3230;42.588;23.358;2022-10-16T08:41:00;61022.06;;;-147.60;100.00
6395;BME280;3230;42.588;23.358;2022-10-16T08:44:03;61022.06;;;-147.60;100.00
6395;BME280;3230;42.588;23.358;2022-10-16T08:49:26;61022.06;;;-147.60;100.00
6395;BME280;3230;42.588;23.358;2022-10-16T08:51:52;61022.06;;;-147.60;100.00
6395;BME280;3230;42.588;23.358;2022-10-16T08:56:46;61022.06;;;-147.60;100.00
6395;BME280;3230;42.588;23.358;2022-10-16T08:59:13;61022.06;;;-147.60;100.00
6395;BME280;3230;42.588;23.358;2022-10-16T09:01:41;61022.06;;;-147.60;100.00
6395;BME280;3230;42.588;23.358;2022-10-16T09:04:41;61022.06;;;-147.60;100.00
6395;BME280;3230;42.588;23.358;2022-10-16T09:10:05;61022.06;;;-147.60;100.00
6395;BME280;3230;42.588;23.358;2022-10-16T09:13:15;61022.06;;;-147.60;100.00
6395;BME280;3230;42.588;23.358;2022-10-16T09:15:59;61022.06;;;-147.60;100.00
6395;BME280;3230;42.588;23.358;2022-10-16T09:18:37;61022.06;;;-147.60;100.00
6395;BME280;3230;42.588;23.358;2022-10-16T09:21:23;61022.06;;;-147.60;100.00
6395;BME280;3230;42.588;23.358;2022-10-16T09:23:50;61022.06;;;-147.60;100.00
6395;BME280;3230;42.588;23.358;2022-10-16T09:26:16;61022.06;;;-147.60;100.00
6395;BME280;3230;42.588;23.358;2022-10-16T09:28:43;61022.06;;;-147.60;100.00
6395;BME280;3230;42.588;23.358;2022-10-16T09:31:18;61022.06;;;-147.60;100.00
6395;BME280;3230;42.588;23.358;2022-10-16T09:33:45;61022.06;;;-147.60;100.00
6395;BME280;3230;42.588;23.358;2022-10-16T09:36:12;61022.06;;;-147.60;100.00
6395;BME280;3230;42.588;23.358;2022-10-16T09:38:38;61022.06;;;-147.60;100.00
6395;BME280;3230;42.588;23.358;2022-10-16T09:41:19;61022.06;;;-147.60;100.00
6395;BME280;3230;42.588;23.358;2022-10-16T09:43:46;61022.06;;;-147.60;100.00
6395;BME280;3230;42.588;23.358;2022-10-16T09:49:02;61022.06;;;-147.60;100.00
6395;BME280;3230;42.588;23.358;2022-10-16T09:51:34;61022.06;;;-147.60;100.00
6395;BME280;3230;42.588;23.358;2022-10-16T09:56:33;61022.06;;;-147.60;100.00
6395;BME280;3230;42.588;23.358;2022-10-16T09:59:03;61022.06;;;-147.60;100.00
6395;BME280;3230;42.588;23.358;2022-10-16T10:01:44;61022.06;;;-147.60;100.00
6395;BME280;3230;42.588;23.358;2022-10-16T10:04:11;61022.06;;;-147.60;100.00
6395;BME280;3230;42.588;23.358;2022-10-16T10:06:42;61022.06;;;-147.60;100.00
6395;BME280;3230;42.588;23.358;2022-10-16T10:09:26;61022.06;;;-147.60;100.00
6395;BME280;3230;42.588;23.358;2022-10-16T10:12:03;61022.06;;;-147.60;100.00
6395;BME280;3230;42.588;23.358;2022-10-16T10:28:07;61022.06;;;-147.60;100.00
6395;BME280;3230;42.588;23.358;2022-10-16T10:44:19;61022.06;;;-147.60;100.00
6395;BME280;3230;42.588;23.358;2022-10-16T11:05:49;61022.06;;;-147.60;100.00
6395;BME280;3230;42.588;23.358;2022-10-16T11:08:20;61022.06;;;-147.60;100.00
6395;BME280;3230;42.588;23.358;2022-10-16T11:11:03;61022.06;;;-147.60;100.00
6395;BME280;3230;42.588;23.358;2022-10-16T11:13:39;61022.06;;;-147.60;100.00
6395;BME280;3230;42.588;23.358;2022-10-16T11:16:23;61022.06;;;-147.60;100.00
6395;BME280;3230;42.588;23.358;2022-10-16T11:18:59;61022.06;;;-147.60;100.00
6395;BME280;3230;42.588;23.358;2022-10-16T11:21:30;61022.06;;;-147.60;100.00
6395;BME280;3230;42.588;23.358;2022-10-16T11:24:17;61022.06;;;-147.60;100.00
6395;BME280;3230;42.588;23.358;2022-10-16T11:26:46;61022.06;;;-147.60;100.00
6395;BME280;3230;42.588;23.358;2022-10-16T11:29:33;61022.06;;;-147.60;100.00
6395;BME280;3230;42.588;23.358;2022-10-16T11:32:06;61022.06;;;-147.60;100.00
6395;BME280;3230;42.588;23.358;2022-10-16T11:34:44;61022.06;;;-147.60;100.00
6395;BME280;3230;42.588;23.358;2022-10-16T11:37:46;61022.06;;;-147.60;100.00
6395;BME280;3230;42.588;23.358;2022-10-16T11:40:22;61022.06;;;-147.60;100.00
6395;BME280;3230;42.588;23.358;2022-10-16T11:42:56;61022.06;;;-147.60;100.00
6395;BME280;3230;42.588;23.358;2022-10-16T11:45:49;61022.06;;;-147.60;100.00
6395;BME280;3230;42.588;23.358;2022-10-16T11:49:21;61022.06;;;-147.60;100.00
6395;BME280;3230;42.588;23.358;2022-10-16T11:54:03;61022.06;;;-147.60;100.00
6395;BME280;3230;42.588;23.358;2022-10-16T11:56:30;61022.06;;;-147.60;100.00
6395;BME280;3230;42.588;23.358;2022-10-16T11:59:02;61022.06;;;-147.60;100.00
6395;BME280;3230;42.588;23.358;2022-10-16T12:01:51;61022.06;;;-147.60;100.00
6395;BME280;3230;42.588;23.358;2022-10-16T12:04:24;61022.06;;;-147.60;100.00
6395;BME280;3230;42.588;23.358;2022-10-16T12:07:02;61022.06;;;-147.60;100.00
6395;BME280;3230;42.588;23.358;2022-10-16T12:09:32;61022.06;;;-147.60;100.00
6395;BME280;3230;42.588;23.358;2022-10-16T12:11:58;61022.06;;;-147.60;100.00
6395;BME280;3230;42.588;23.358;2022-10-16T12:17:04;61022.06;;;-147.60;100.00
6395;BME280;3230;42.588;23.358;2022-10-16T12:30:30;61022.06;;;-147.60;100.00
6395;BME280;3230;42.588;23.358;2022-10-16T12:33:21;61022.06;;;-147.60;100.00
6395;BME280;3230;42.588;23.358;2022-10-16T12:35:48;61022.06;;;-147.60;100.00
6395;BME280;3230;42.588;23.358;2022-10-16T12:38:45;61022.06;;;-147.60;100.00
6395;BME280;3230;42.588;23.358;2022-10-16T12:41:11;61022.06;;;-147.60;100.00
6395;BME280;3230;42.588;23.358;2022-10-16T12:43:40;61022.06;;;-147.60;100.00
6395;BME280;3230;42.588;23.358;2022-10-16T12:48:35;61022.06;;;-147.60;100.00
6395;BME280;3230;42.588;23.358;2022-10-16T13:07:44;61022.06;;;-147.60;100.00
6395;BME280;3230;42.588;23.358;2022-10-16T13:10:21;61022.06;;;-147.60;100.00
6395;BME280;3230;42.588;23.358;2022-10-16T13:13:04;61022.06;;;-147.60;100.00
6395;BME280;3230;42.588;23.358;2022-10-16T13:27:58;61022.06;;;-147.60;100.00
6395;BME280;3230;42.588;23.358;2022-10-16T13:30:15;61022.06;;;-147.60;100.00
6395;BME280;3230;42.588;23.358;2022-10-16T13:32:48;61022.06;;;-147.60;100.00
6395;BME280;3230;42.588;23.358;2022-10-16T13:35:23;61022.06;;;-147.60;100.00
6395;BME280;3230;42.588;23.358;2022-10-16T13:37:50;61022.06;;;-147.60;100.00
6395;BME280;3230;42.588;23.358;2022-10-16T13:40:23;61022.06;;;-147.60;100.00
6395;BME280;3230;42.588;23.358;2022-10-16T13:42:50;61022.06;;;-147.60;100.00
6395;BME280;3230;42.588;23.358;2022-10-16T13:45:21;61022.06;;;-147.60;100.00
6395;BME280;3230;42.588;23.358;2022-10-16T13:47:47;61022.06;;;-147.60;100.00
6395;BME280;3230;42.588;23.358;2022-10-16T13:50:15;61022.06;;;-147.60;100.00
6395;BME280;3230;42.588;23.358;2022-10-16T13:52:41;61022.06;;;-147.60;100.00
6395;BME280;3230;42.588;23.358;2022-10-16T13:55:11;61022.06;;;-147.60;100.00
6395;BME280;3230;42.588;23.358;2022-10-16T13:57:37;61022.06;;;-147.60;100.00
6395;BME280;3230;42.588;23.358;2022-10-16T14:00:03;61022.06;;;-147.60;100.00
6395;BME280;3230;42.588;23.358;2022-10-16T14:02:42;61022.06;;;-147.60;100.00
6395;BME280;3230;42.588;23.358;2022-10-16T14:05:08;61022.06;;;-147.60;100.00
6395;BME280;3230;42.588;23.358;2022-10-16T14:07:36;61022.06;;;-147.60;100.00
6395;BME280;3230;42.588;23.358;2022-10-16T14:10:05;61022.06;;;-147.60;100.00
6395;BME280;3230;42.588;23.358;2022-10-16T14:12:31;61022.06;;;-147.60;100.00
6395;BME280;3230;42.588;23.358;2022-10-16T14:14:58;61022.06;;;-147.60;100.00
6395;BME280;3230;42.588;23.358;2022-10-16T14:17:30;61022.06;;;-147.60;100.00
6395;BME280;3230;42.588;23.358;2022-10-16T14:19:59;61022.06;;;-147.60;100.00
6395;BME280;3230;42.588;23.358;2022-10-16T14:25:47;61022.06;;;-147.60;100.00
6395;BME280;3230;42.588;23.358;2022-10-16T14:30:27;61022.06;;;-147.60;100.00
6395;BME280;3230;42.588;23.358;2022-10-16T14:35:24;61022.06;;;-147.60;100.00
6395;BME280;3230;42.588;23.358;2022-10-16T14:37:54;61022.06;;;-147.60;100.00
6395;BME280;3230;42.588;23.358;2022-10-16T14:40:24;61022.06;;;-147.60;100.00
6395;BME280;3230;42.588;23.358;2022-10-16T14:42:50;61022.06;;;-147.60;100.00
6395;BME280;3230;42.588;23.358;2022-10-16T14:45:22;61022.06;;;-147.60;100.00
6395;BME280;3230;42.588;23.358;2022-10-16T14:48:01;61022.06;;;-147.60;100.00
6395;BME280;3230;42.588;23.358;2022-10-16T14:50:27;61022.06;;;-147.60;100.00
6395;BME280;3230;42.588;23.358;2022-10-16T14:52:52;61022.06;;;-147.60;100.00
6395;BME280;3230;42.588;23.358;2022-10-16T14:55:18;61022.06;;;-147.60;100.00
6395;BME280;3230;42.588;23.358;2022-10-16T14:57:44;61022.06;;;-147.60;100.00
6395;BME280;3230;42.588;23.358;2022-10-16T15:00:17;61022.06;;;-147.60;100.00
6395;BME280;3230;42.588;23.358;2022-10-16T15:02:44;61022.06;;;-147.60;100.00
6395;BME280;3230;42.588;23.358;2022-10-16T15:05:19;61022.06;;;-147.60;100.00
6395;BME280;3230;42.588;23.358;2022-10-16T15:07:46;61022.06;;;-147.60;100.00
6395;BME280;3230;42.588;23.358;2022-10-16T15:10:13;61022.06;;;-147.60;100.00
6395;BME280;3230;42.588;23.358;2022-10-16T15:12:39;61022.06;;;-147.60;100.00
6395;BME280;3230;42.588;23.358;2022-10-16T15:17:36;61022.06;;;-147.60;100.00
6395;BME280;3230;42.588;23.358;2022-10-16T15:20:02;61022.06;;;-147.60;100.00
6395;BME280;3230;42.588;23.358;2022-10-16T15:22:27;61022.06;;;-147.60;100.00
6395;BME280;3230;42.588;23.358;2022-10-16T15:24:53;61022.06;;;-147.60;100.00